createdAt,value
2024-01-24T00:02:31.681Z,100468.31
2024-01-24T00:07:34.692Z,100455.37
2024-01-24T00:12:37.670Z,100455.29
2024-01-24T00:17:41.490Z,100436.15
2024-01-24T00:22:44.339Z,100442.03
2024-01-24T00:27:47.765Z,100444.73
2024-01-24T00:32:50.663Z,100427.24
2024-01-24T00:37:53.419Z,100411.08
2024-01-24T00:42:56.181Z,100391.13
2024-01-24T00:47:59.121Z,100355.16
2024-01-24T00:53:05.468Z,100341.05
2024-01-24T00:58:08.760Z,100337.35
2024-01-24T01:03:11.601Z,100317.00
2024-01-24T01:08:14.684Z,100311.34
2024-01-24T01:13:17.608Z,100301.17
2024-01-24T01:18:20.400Z,100289.67
2024-01-24T01:23:23.372Z,100278.03
2024-01-24T01:28:26.129Z,100278.13
2024-01-24T01:33:28.995Z,100274.97
2024-01-24T01:38:32.039Z,100271.15
2024-01-24T01:43:34.834Z,100264.03
2024-01-24T01:48:38.895Z,100255.77
2024-01-24T01:53:41.918Z,100236.62
2024-01-24T01:58:46.313Z,100212.02
2024-01-24T02:03:49.389Z,100204.14
2024-01-24T02:08:52.853Z,100175.84
2024-01-24T02:14:00.445Z,100155.53
2024-01-24T02:19:03.834Z,100142.49
2024-01-24T02:24:11.701Z,100132.55
2024-01-24T02:29:15.020Z,100120.35
2024-01-24T02:34:17.935Z,100117.39
2024-01-24T02:39:20.908Z,100091.61
2024-01-24T02:44:23.866Z,100075.35
2024-01-24T02:49:26.702Z,100049.07
2024-01-24T02:54:30.545Z,100041.89
2024-01-24T02:59:33.583Z,100025.70
2024-01-24T03:04:36.509Z,100012.50
2024-01-24T03:09:39.409Z,99999.27
2024-01-24T03:14:42.330Z,99966.27
2024-01-24T03:19:45.733Z,99943.37
2024-01-24T03:24:48.788Z,99933.55
2024-01-24T03:29:51.614Z,99921.63
2024-01-24T03:34:55.772Z,99909.02
2024-01-24T03:39:58.808Z,99900.67
2024-01-24T03:45:02.009Z,99888.05
2024-01-24T03:50:05.433Z,99858.16
2024-01-24T03:55:08.963Z,99853.49
2024-01-24T04:00:12.887Z,99855.79
2024-01-24T04:05:16.277Z,99852.50
2024-01-24T04:10:19.057Z,99840.16
2024-01-24T04:15:21.885Z,99817.91
2024-01-24T04:20:24.662Z,99808.95
2024-01-24T04:25:27.589Z,99791.88
2024-01-24T04:30:30.677Z,99778.77
2024-01-24T04:35:33.605Z,99771.48
2024-01-24T04:40:36.366Z,99755.11
2024-01-24T04:45:39.120Z,99734.08
2024-01-24T04:50:42.103Z,99703.02
2024-01-24T04:55:45.511Z,99687.53
2024-01-24T05:00:49.519Z,99666.91
2024-01-24T05:06:00.985Z,99657.80
2024-01-24T05:11:07.887Z,99624.37
2024-01-24T05:16:10.866Z,99604.37
2024-01-24T05:21:13.692Z,99585.44
2024-01-24T05:26:16.741Z,99565.46
2024-01-24T05:31:19.579Z,99559.22
2024-01-24T05:36:22.898Z,99541.35
2024-01-24T05:41:26.111Z,99521.27
2024-01-24T05:46:28.972Z,99497.45
2024-01-24T05:51:31.842Z,99462.36
2024-01-24T05:56:34.716Z,99438.87
2024-01-24T06:01:37.984Z,99419.33
2024-01-24T06:06:41.736Z,99400.61
2024-01-24T06:16:47.625Z,99337.73
2024-01-24T06:21:50.562Z,99315.66
2024-01-24T06:26:53.855Z,99300.11
2024-01-24T06:31:58.429Z,99280.67
2024-01-24T06:37:01.326Z,99273.36
2024-01-24T06:42:04.397Z,99257.95
2024-01-24T06:47:07.406Z,99248.22
2024-01-24T06:52:10.206Z,99235.27
2024-01-24T06:57:13.108Z,99233.64
2024-01-24T07:02:15.972Z,99214.02
2024-01-24T07:07:19.011Z,99199.54
2024-01-24T07:12:22.185Z,99186.25
2024-01-24T07:17:25.258Z,99172.77
2024-01-24T07:22:28.876Z,99153.62
2024-01-24T07:27:33.094Z,99138.33
2024-01-24T07:32:40.715Z,99132.42
2024-01-24T07:37:45.660Z,99115.17
2024-01-24T07:42:55.400Z,99117.77
2024-01-24T07:47:59.461Z,99095.68
2024-01-24T07:53:02.379Z,99086.67
2024-01-24T07:58:05.516Z,99079.27
2024-01-24T08:03:09.294Z,99067.19
2024-01-24T08:08:12.500Z,99053.63
2024-01-24T08:13:15.720Z,99038.02
2024-01-24T08:18:19.195Z,99024.94
2024-01-24T08:23:26.522Z,99008.45
2024-01-24T08:28:31.894Z,98999.23
2024-01-24T08:33:34.952Z,98996.00
2024-01-24T08:38:38.365Z,98969.84
2024-01-24T08:43:41.364Z,98951.27
2024-01-24T08:48:44.702Z,98960.55
2024-01-24T08:53:47.848Z,98927.05
2024-01-24T08:58:50.869Z,98939.84
2024-01-24T09:03:54.898Z,98924.64
2024-01-24T09:08:57.959Z,98908.67
2024-01-24T09:14:00.938Z,98892.55
2024-01-24T09:19:05.239Z,98875.27
2024-01-24T09:24:08.883Z,98849.75
2024-01-24T09:29:13.777Z,98863.19
2024-01-24T09:34:18.189Z,98870.77
2024-01-24T09:39:21.367Z,98862.43
2024-01-24T09:44:26.417Z,98873.08
2024-01-24T09:49:32.441Z,98873.58
2024-01-24T09:54:36.456Z,98876.19
2024-01-24T09:59:39.563Z,98870.30
2024-01-24T10:04:45.450Z,98857.76
2024-01-24T10:09:49.259Z,98858.89
2024-01-24T10:14:53.171Z,98843.93
2024-01-24T10:19:56.261Z,98829.79
2024-01-24T10:24:59.814Z,98833.86
2024-01-24T10:30:03.318Z,98813.58
2024-01-24T10:35:07.805Z,98817.34
2024-01-24T10:40:16.267Z,98822.00
2024-01-24T10:45:21.556Z,98819.07
2024-01-24T10:50:26.033Z,98803.77
2024-01-24T10:55:31.267Z,98805.77
2024-01-24T11:00:34.916Z,98802.45
2024-01-24T11:05:55.755Z,98798.92
2024-01-24T11:11:04.631Z,98799.20
2024-01-24T11:16:32.834Z,98802.42
2024-01-24T11:21:36.732Z,98806.89
2024-01-24T11:26:39.970Z,98803.52
2024-01-24T11:31:44.953Z,98801.38
2024-01-24T11:36:52.821Z,98788.73
2024-01-24T11:42:25.240Z,98786.98
2024-01-24T11:47:28.535Z,98783.89
2024-01-24T11:52:31.426Z,98783.89
2024-01-24T11:57:34.681Z,98771.27
2024-01-24T12:02:38.129Z,98773.39
2024-01-24T12:07:41.061Z,98768.76
2024-01-24T12:12:44.879Z,98768.70
2024-01-24T12:17:47.788Z,98773.77
2024-01-24T12:22:50.709Z,98762.92
2024-01-24T12:27:54.225Z,98764.08
2024-01-24T12:32:58.935Z,98768.06
2024-01-24T12:38:04.036Z,98763.80
2024-01-24T12:43:07.133Z,98755.81
2024-01-24T12:48:12.505Z,98768.05
2024-01-24T12:53:15.681Z,98775.19
2024-01-24T12:58:19.102Z,98769.52
2024-01-24T13:03:23.463Z,98766.05
2024-01-24T13:08:27.686Z,98774.30
2024-01-24T13:13:30.902Z,98767.43
2024-01-24T13:18:34.031Z,98768.60
2024-01-24T13:23:36.931Z,98778.62
2024-01-24T13:28:41.126Z,98778.71
2024-01-24T13:33:46.496Z,98780.83
2024-01-24T13:38:50.249Z,98781.05
2024-01-24T13:43:53.954Z,98774.52
2024-01-24T13:48:57.202Z,98776.22
2024-01-24T13:54:00.219Z,98779.58
2024-01-24T13:59:03.437Z,98770.39
2024-01-24T14:04:06.795Z,98771.35
2024-01-24T14:09:11.713Z,98767.06
2024-01-24T14:14:14.673Z,98770.40
2024-01-24T14:19:17.687Z,98775.55
2024-01-24T14:24:21.613Z,98789.58
2024-01-24T14:29:24.949Z,98791.83
2024-01-24T14:34:28.012Z,98795.23
2024-01-24T14:39:31.156Z,98797.31
2024-01-24T14:44:34.049Z,98785.52
2024-01-24T14:49:36.958Z,98784.15
2024-01-24T14:54:40.866Z,98789.57
2024-01-24T14:59:44.090Z,98784.83
2024-01-24T15:04:46.926Z,98785.92
2024-01-24T15:09:50.475Z,98792.23
2024-01-24T15:14:53.523Z,98790.52
2024-01-24T15:19:57.053Z,98795.67
2024-01-24T15:25:03.147Z,98800.48
2024-01-24T15:30:07.696Z,98805.67
2024-01-24T15:35:11.392Z,98805.73
2024-01-24T15:40:17.920Z,98801.44
2024-01-24T15:45:26.113Z,98802.88
2024-01-24T15:50:29.307Z,98799.21
2024-01-24T15:55:32.998Z,98800.90
2024-01-24T16:00:36.079Z,98801.12
2024-01-24T16:05:47.287Z,98805.65
2024-01-24T16:10:50.557Z,98811.43
2024-01-24T16:15:53.805Z,98813.95
2024-01-24T16:20:56.760Z,98812.24
2024-01-24T16:26:00.052Z,98809.70
2024-01-24T16:31:04.036Z,98812.32
2024-01-24T16:36:07.423Z,98809.86
2024-01-24T16:41:11.877Z,98801.36
2024-01-24T16:46:15.743Z,98801.95
2024-01-24T16:51:18.695Z,98793.90
2024-01-24T16:56:21.595Z,98789.60
2024-01-24T17:01:24.634Z,98785.15
2024-01-24T17:06:27.651Z,98787.04
2024-01-24T17:11:30.645Z,98790.44
2024-01-24T17:16:33.626Z,98790.81
2024-01-24T17:21:36.903Z,98787.06
2024-01-24T17:26:40.154Z,98787.55
2024-01-24T17:31:43.045Z,98795.66
2024-01-24T17:36:45.797Z,98784.13
2024-01-24T17:41:49.346Z,98789.21
2024-01-24T17:46:55.179Z,98784.77
2024-01-24T17:51:58.200Z,98788.11
2024-01-24T17:57:01.279Z,98788.67
2024-01-24T18:02:04.416Z,98783.11
2024-01-24T18:07:07.586Z,98780.05
2024-01-24T18:12:11.406Z,98778.16
2024-01-24T18:17:14.316Z,98780.21
2024-01-24T18:22:17.249Z,98785.39
2024-01-24T18:27:20.109Z,98787.74
2024-01-24T18:32:22.957Z,98789.86
2024-01-24T18:37:26.208Z,98785.98
2024-01-24T18:42:29.177Z,98785.24
2024-01-24T18:47:32.419Z,98784.64
2024-01-24T18:52:35.662Z,98783.52
2024-01-24T18:57:39.326Z,98782.45
2024-01-24T19:02:42.750Z,98780.35
2024-01-24T19:07:46.239Z,98782.91
2024-01-24T19:12:49.582Z,98788.68
2024-01-24T19:17:52.782Z,98780.89
2024-01-24T19:22:57.397Z,98772.90
2024-01-24T19:28:00.457Z,98779.98
2024-01-24T19:33:03.787Z,98772.55
2024-01-24T19:38:06.857Z,98782.05
2024-01-24T19:43:09.989Z,98781.70
2024-01-24T19:48:14.627Z,98792.58
2024-01-24T19:53:21.109Z,98779.94
2024-01-24T19:58:30.213Z,98780.54
2024-01-24T20:03:33.336Z,98787.08
2024-01-24T20:08:36.604Z,98784.13
2024-01-24T20:13:39.529Z,98784.35
2024-01-24T20:18:42.435Z,98782.45
2024-01-24T20:23:45.457Z,98780.60
2024-01-24T20:28:48.336Z,98775.39
2024-01-24T20:33:51.449Z,98775.00
2024-01-24T20:38:54.502Z,98769.38
2024-01-24T20:43:57.385Z,98766.70
2024-01-24T20:49:00.733Z,98768.99
2024-01-24T20:54:08.125Z,98770.85
2024-01-24T20:59:11.802Z,98771.23
2024-01-24T21:04:15.448Z,98779.00
2024-01-24T21:09:18.525Z,98772.81
2024-01-24T21:14:21.561Z,98768.73
2024-01-24T21:19:25.813Z,98779.02
2024-01-24T21:24:28.993Z,98775.35
2024-01-24T21:29:31.908Z,98777.18
2024-01-24T21:34:34.923Z,98784.93
2024-01-24T21:39:37.928Z,98786.64
2024-01-24T21:44:40.813Z,98791.82
2024-01-24T21:49:43.853Z,98798.73
2024-01-24T21:54:52.515Z,98798.77
2024-01-24T21:59:55.562Z,98803.83
2024-01-24T22:04:58.390Z,98799.11
2024-01-24T22:10:01.752Z,98806.45
2024-01-24T22:15:09.401Z,98815.92
2024-01-24T22:20:12.462Z,98826.21
2024-01-24T22:25:15.555Z,98825.39
2024-01-24T22:30:19.364Z,98831.72
2024-01-24T22:35:22.624Z,98835.09
2024-01-24T22:40:27.018Z,98842.77
2024-01-24T22:45:29.943Z,98843.42
2024-01-24T22:50:34.182Z,98852.95
2024-01-24T22:55:37.536Z,98854.52
2024-01-24T23:00:40.432Z,98851.13
2024-01-24T23:05:43.426Z,98858.71
2024-01-24T23:10:46.348Z,98848.34
2024-01-24T23:15:49.291Z,98846.46
2024-01-24T23:20:53.830Z,98844.16
2024-01-24T23:25:56.727Z,98848.42
2024-01-24T23:30:59.619Z,98853.35
2024-01-24T23:36:05.445Z,98855.83
2024-01-24T23:41:08.320Z,98856.50
2024-01-24T23:46:11.680Z,98855.36
2024-01-24T23:51:15.211Z,98860.69
2024-01-24T23:56:18.318Z,98867.75
